Time;durP1;ratioP1;P1;durP2;ratioP2;P2;SDS_P1;SDS_P2;PMS_P1;PMS_P2;Temp;Humidity;BMP_temperature;BMP_pressure;BME280_temperature;BME280_humidity;BME280_pressure;Samples;Min_cycle;Max_cycle;Signal;HPM_P1;HPM_P2
2023/02/14 00:00:28;;;;;;;14.38;8.45;;;;;3.30;100309.00;;;;5078694;28;20094;-61
2023/02/14 00:02:55;;;;;;;14.13;9.38;;;;;3.30;100297.00;;;;5076800;28;20036;-62
2023/02/14 00:05:22;;;;;;;16.20;9.20;;;;;3.30;100299.00;;;;5075194;28;20254;-62
2023/02/14 00:07:49;;;;;;;12.98;8.30;;;;;3.20;100305.00;;;;5075515;28;20127;-62
2023/02/14 00:10:16;;;;;;;14.00;9.05;;;;;3.20;100298.00;;;;5075411;28;20044;-62
2023/02/14 00:12:42;;;;;;;11.18;7.50;;;;;3.20;100293.00;;;;5075160;28;20040;-62
2023/02/14 00:15:22;;;;;;;12.20;7.13;;;;;3.20;100285.00;;;;5074614;28;20048;-62
2023/02/14 00:17:50;;;;;;;12.35;8.25;;;;;3.20;100282.00;;;;5075424;28;20055;-62
2023/02/14 00:20:16;;;;;;;11.32;6.90;;;;;3.20;100295.00;;;;5075334;28;20052;-62
2023/02/14 00:22:43;;;;;;;9.88;7.43;;;;;3.10;100291.00;;;;5075194;28;20424;-62
2023/02/14 00:25:10;;;;;;;13.32;8.00;;;;;3.10;100283.00;;;;5074358;28;20090;-62
2023/02/14 00:27:36;;;;;;;13.98;8.20;;;;;3.00;100287.00;;;;5074811;28;20044;-64
2023/02/14 00:30:05;;;;;;;12.32;7.75;;;;;3.10;100284.00;;;;5074909;28;20048;-61
2023/02/14 00:32:32;;;;;;;14.20;8.93;;;;;3.10;100290.00;;;;5074753;28;20063;-62
2023/02/14 00:34:59;;;;;;;10.75;8.27;;;;;3.10;100285.00;;;;5072840;28;20452;-62
2023/02/14 00:37:25;;;;;;;14.48;7.68;;;;;3.10;100275.00;;;;5074708;28;20051;-62
2023/02/14 00:39:52;;;;;;;11.73;7.35;;;;;3.10;100268.00;;;;5073483;28;20052;-62
2023/02/14 00:42:18;;;;;;;13.50;8.20;;;;;3.20;100274.00;;;;5074873;28;20041;-62
2023/02/14 00:44:45;;;;;;;13.57;9.48;;;;;3.20;100278.00;;;;5077343;28;20070;-62
2023/02/14 00:47:11;;;;;;;14.40;9.93;;;;;3.00;100282.00;;;;5081819;28;20358;-62
2023/02/14 00:49:38;;;;;;;13.68;9.73;;;;;3.00;100278.00;;;;5079778;28;20063;-61
2023/02/14 00:52:04;;;;;;;13.40;9.48;;;;;3.00;100281.00;;;;5076004;28;20033;-62
2023/02/14 00:54:31;;;;;;;14.05;9.55;;;;;2.90;100278.00;;;;5073119;28;20060;-62
2023/02/14 00:56:58;;;;;;;18.98;10.60;;;;;2.90;100281.00;;;;5074819;28;20440;-62
2023/02/14 00:59:24;;;;;;;14.32;9.38;;;;;2.80;100284.00;;;;5074635;28;20055;-62
2023/02/14 01:01:51;;;;;;;17.27;10.13;;;;;2.90;100285.00;;;;5073722;28;20095;-61
2023/02/14 01:04:17;;;;;;;12.35;8.10;;;;;3.00;100288.00;;;;5073730;28;20045;-62
2023/02/14 01:06:44;;;;;;;11.63;8.30;;;;;3.00;100288.00;;;;5073481;28;20520;-62
2023/02/14 01:09:11;;;;;;;11.18;8.05;;;;;2.90;100293.00;;;;5074813;28;20036;-62
2023/02/14 01:11:38;;;;;;;12.25;8.02;;;;;2.90;100290.00;;;;5074548;28;20063;-62
2023/02/14 01:14:05;;;;;;;11.73;8.02;;;;;2.90;100286.00;;;;5072712;28;20382;-61
2023/02/14 01:16:31;;;;;;;18.67;9.77;;;;;2.70;100283.00;;;;5073177;28;20048;-63
2023/02/14 01:18:59;;;;;;;11.55;7.95;;;;;2.70;100291.00;;;;5073015;28;20094;-63
2023/02/14 01:21:31;;;;;;;10.93;8.10;;;;;2.70;100291.00;;;;5074201;28;20409;-61
2023/02/14 01:24:01;;;;;;;11.02;8.07;;;;;2.70;100305.00;;;;5074177;28;20048;-61
2023/02/14 01:26:28;;;;;;;12.73;9.05;;;;;2.60;100293.00;;;;5073545;28;20052;-62
2023/02/14 01:28:55;;;;;;;16.05;8.98;;;;;2.50;100299.00;;;;5074169;28;20040;-60
2023/02/14 01:31:24;;;;;;;19.17;10.82;;;;;2.50;100301.00;;;;5073930;28;20047;-61
2023/02/14 01:33:52;;;;;;;15.25;9.73;;;;;2.40;100292.00;;;;5073558;28;20083;-61
2023/02/14 01:36:22;;;;;;;14.57;9.48;;;;;2.40;100286.00;;;;5071904;28;20044;-62
2023/02/14 01:38:54;;;;;;;16.48;10.43;;;;;2.40;100288.00;;;;5072441;28;20048;-61
2023/02/14 01:41:23;;;;;;;14.90;9.73;;;;;2.40;100291.00;;;;5072352;28;20044;-61
2023/02/14 01:43:55;;;;;;;14.80;9.05;;;;;2.40;100284.00;;;;5073530;28;20052;-61
2023/02/14 01:46:24;;;;;;;13.18;9.60;;;;;2.40;100283.00;;;;5073267;28;20045;-61
2023/02/14 01:48:54;;;;;;;15.82;10.43;;;;;2.40;100277.00;;;;5073786;28;20148;-61
2023/02/14 01:51:22;;;;;;;15.70;9.93;;;;;2.30;100284.00;;;;5073385;28;20048;-61
2023/02/14 01:53:50;;;;;;;13.80;9.77;;;;;2.30;100272.00;;;;5073711;28;20045;-61
2023/02/14 01:56:37;;;;;;;15.73;9.68;;;;;2.30;100270.00;;;;5072853;28;20048;-61
2023/02/14 01:59:07;;;;;;;16.80;10.48;;;;;2.10;100272.00;;;;5072341;28;20049;-61
2023/02/14 02:01:34;;;;;;;15.90;9.65;;;;;2.10;100269.00;;;;5072026;28;20421;-61
2023/02/14 02:04:07;;;;;;;13.52;9.70;;;;;2.10;100263.00;;;;5071546;28;20044;-60
2023/02/14 02:06:44;;;;;;;15.07;9.07;;;;;2.10;100260.00;;;;5071894;28;20090;-61
2023/02/14 02:09:34;;;;;;;13.13;9.63;;;;;2.00;100275.00;;;;5072997;28;20397;-61
2023/02/14 02:12:02;;;;;;;12.75;8.85;;;;;1.90;100263.00;;;;5072666;28;20405;-61
2023/02/14 02:14:29;;;;;;;13.50;8.85;;;;;1.80;100261.00;;;;5070839;28;20044;-61
2023/02/14 02:17:19;;;;;;;13.75;8.57;;;;;1.90;100275.00;;;;5073113;28;20455;-61
2023/02/14 02:20:02;;;;;;;12.30;8.32;;;;;2.00;100271.00;;;;5071559;28;20102;-61
2023/02/14 02:22:50;;;;;;;11.65;8.60;;;;;2.10;100270.00;;;;5072894;28;20048;-60
2023/02/14 02:25:29;;;;;;;13.05;9.55;;;;;2.00;100262.00;;;;5070877;28;20052;-60
2023/02/14 02:28:36;;;;;;;15.27;9.18;;;;;1.90;100260.00;;;;5072919;28;20052;-61
2023/02/14 02:31:24;;;;;;;15.98;10.13;;;;;2.00;100263.00;;;;5072944;28;20045;-61
2023/02/14 02:34:21;;;;;;;15.70;9.50;;;;;2.00;100254.00;;;;5073140;28;20520;-61
2023/02/14 02:37:06;;;;;;;16.15;9.45;;;;;2.00;100253.00;;;;5073000;28;20044;-62
2023/02/14 02:39:57;;;;;;;15.05;11.07;;;;;1.90;100258.00;;;;5072443;28;20485;-61
2023/02/14 02:42:55;;;;;;;15.65;9.73;;;;;1.90;100249.00;;;;5071918;28;20040;-60
2023/02/14 02:48:55;;;;;;;17.23;11.05;;;;;1.80;100262.00;;;;5071719;28;20060;-62
2023/02/14 02:54:51;;;;;;;15.50;10.73;;;;;1.80;100262.00;;;;5070292;28;20699;-61
2023/02/14 02:57:27;;;;;;;18.65;11.48;;;;;1.90;100257.00;;;;5054740;28;20055;-61
2023/02/14 02:59:56;;;;;;;17.05;11.30;;;;;1.90;100258.00;;;;5071264;28;20049;-61
2023/02/14 03:02:29;;;;;;;18.15;11.73;;;;;1.80;100262.00;;;;5071133;28;20048;-61
2023/02/14 03:05:01;;;;;;;17.55;10.75;;;;;1.80;100255.00;;;;5070285;28;20048;-61
2023/02/14 03:07:40;;;;;;;14.95;10.73;;;;;1.70;100252.00;;;;5072141;28;20036;-61
2023/02/14 03:10:14;;;;;;;19.75;11.63;;;;;1.70;100258.00;;;;5070811;28;20078;-61
2023/02/14 03:12:50;;;;;;;;;;;;;1.70;100255.00;;;;5071013;28;20049;-61
2023/02/14 03:15:44;;;;;;;15.40;10.40;;;;;1.70;100253.00;;;;5070711;28;19920;-61
2023/02/14 03:21:44;;;;;;;17.20;11.93;;;;;1.70;100255.00;;;;5071683;28;20405;-61
2023/02/14 03:24:17;;;;;;;21.15;11.82;;;;;1.70;100238.00;;;;5071108;28;20489;-62
2023/02/14 03:26:55;;;;;;;16.75;11.57;;;;;1.60;100239.00;;;;5075549;28;20110;-61
2023/02/14 03:29:44;;;;;;;18.80;11.88;;;;;1.60;100244.00;;;;5075363;28;20052;-61
2023/02/14 03:32:16;;;;;;;18.40;11.43;;;;;1.60;100236.00;;;;5076489;28;20040;-61
2023/02/14 03:34:50;;;;;;;19.50;12.43;;;;;1.60;100242.00;;;;5074360;28;20052;-61
2023/02/14 03:37:27;;;;;;;19.63;12.02;;;;;1.60;100250.00;;;;5075306;28;20068;-61
2023/02/14 03:40:04;;;;;;;18.85;12.30;;;;;1.60;100250.00;;;;5075096;28;20048;-62
2023/02/14 03:42:42;;;;;;;16.38;11.23;;;;;1.50;100257.00;;;;5075766;28;20098;-62
2023/02/14 03:45:17;;;;;;;22.13;13.07;;;;;1.50;100254.00;;;;5075046;28;20102;-62
2023/02/14 03:47:45;;;;;;;19.75;12.48;;;;;1.50;100248.00;;;;5076001;28;20052;-62
2023/02/14 03:50:16;;;;;;;18.90;11.38;;;;;1.50;100261.00;;;;5075783;28;20067;-62
2023/02/14 03:52:44;;;;;;;20.48;12.20;;;;;1.60;100250.00;;;;5075665;28;20049;-62
2023/02/14 03:55:15;;;;;;;19.27;11.82;;;;;1.50;100258.00;;;;5074973;28;20062;-62
2023/02/14 03:58:09;;;;;;;19.20;12.00;;;;;1.60;100260.00;;;;5075636;28;20045;-61
2023/02/14 04:00:39;;;;;;;23.15;12.40;;;;;1.60;100263.00;;;;5075703;28;20069;-62
2023/02/14 04:03:12;;;;;;;18.80;11.77;;;;;1.60;100253.00;;;;5075444;28;20045;-62
2023/02/14 04:05:42;;;;;;;21.63;11.98;;;;;1.60;100260.00;;;;5074865;28;20493;-61
2023/02/14 04:08:10;;;;;;;19.70;12.50;;;;;1.60;100264.00;;;;5074693;28;20432;-61
2023/02/14 04:10:38;;;;;;;19.80;12.15;;;;;1.40;100260.00;;;;5075304;28;20382;-62
2023/02/14 04:13:05;;;;;;;19.15;11.73;;;;;1.50;100260.00;;;;5075514;28;20036;-61
2023/02/14 04:15:31;;;;;;;19.77;12.02;;;;;1.50;100256.00;;;;5074514;28;20611;-61
2023/02/14 04:20:43;;;;;;;19.90;11.75;;;;;1.60;100262.00;;;;5075095;28;20045;-61
2023/02/14 04:23:10;;;;;;;20.00;12.75;;;;;1.60;100265.00;;;;5074887;28;20478;-61
2023/02/14 04:25:38;;;;;;;18.40;11.93;;;;;1.70;100263.00;;;;5074303;28;20110;-62
2023/02/14 04:28:05;;;;;;;17.27;10.68;;;;;1.80;100253.00;;;;5074895;28;20059;-62
2023/02/14 04:30:31;;;;;;;17.10;11.27;;;;;1.80;100255.00;;;;5075481;28;20052;-62
2023/02/14 04:32:58;;;;;;;16.27;10.30;;;;;1.60;100256.00;;;;5074117;28;20110;-61
2023/02/14 04:35:24;;;;;;;19.38;11.95;;;;;1.50;100257.00;;;;5074455;28;20102;-62
2023/02/14 04:37:51;;;;;;;17.88;11.00;;;;;1.50;100258.00;;;;5075740;28;20040;-62
2023/02/14 04:40:18;;;;;;;18.08;10.80;;;;;1.60;100255.00;;;;5074375;28;20048;-62
2023/02/14 04:42:45;;;;;;;18.08;11.23;;;;;1.60;100256.00;;;;5075525;28;20044;-61
2023/02/14 04:45:12;;;;;;;18.33;11.68;;;;;1.70;100253.00;;;;5076529;28;20478;-61
2023/02/14 04:47:38;;;;;;;19.00;11.77;;;;;1.80;100261.00;;;;5080272;28;20101;-60
2023/02/14 04:50:06;;;;;;;20.05;11.43;;;;;1.80;100262.00;;;;5075741;28;20098;-61
2023/02/14 04:52:32;;;;;;;16.95;11.15;;;;;1.60;100253.00;;;;5075388;28;20048;-60
2023/02/14 04:54:59;;;;;;;19.35;11.48;;;;;1.40;100252.00;;;;5074312;28;20056;-61
2023/02/14 04:57:25;;;;;;;18.00;11.77;;;;;1.30;100248.00;;;;5073936;28;20052;-60
2023/02/14 04:59:52;;;;;;;22.40;11.55;;;;;1.20;100245.00;;;;5075357;28;20055;-60
2023/02/14 05:02:18;;;;;;;26.00;15.27;;;;;1.30;100251.00;;;;5075331;28;20053;-60
2023/02/14 05:04:45;;;;;;;28.67;16.50;;;;;1.30;100249.00;;;;5074440;28;20047;-59
2023/02/14 05:07:15;;;;;;;18.42;11.82;;;;;1.20;100245.00;;;;5075796;28;20048;-61
2023/02/14 05:09:41;;;;;;;16.92;11.30;;;;;1.20;100239.00;;;;5075538;28;20037;-61
2023/02/14 05:12:08;;;;;;;17.30;12.00;;;;;1.20;100241.00;;;;5076001;28;20048;-61
2023/02/14 05:14:34;;;;;;;17.00;11.52;;;;;1.20;100238.00;;;;5074577;28;20451;-60
2023/02/14 05:17:01;;;;;;;18.05;11.27;;;;;1.20;100243.00;;;;5075260;28;20106;-60
2023/02/14 05:19:27;;;;;;;18.77;11.73;;;;;1.10;100241.00;;;;5073750;28;20052;-59
2023/02/14 05:21:54;;;;;;;18.13;11.25;;;;;1.10;100240.00;;;;5074675;28;20041;-61
2023/02/14 05:24:20;;;;;;;17.90;10.85;;;;;1.10;100243.00;;;;5073779;28;20116;-60
2023/02/14 05:26:47;;;;;;;16.60;11.02;;;;;1.20;100232.00;;;;5074585;28;20515;-61
2023/02/14 05:29:13;;;;;;;19.92;11.55;;;;;1.30;100246.00;;;;5074487;28;20056;-61
2023/02/14 05:31:40;;;;;;;18.80;11.63;;;;;1.30;100249.00;;;;5074284;28;20082;-60
2023/02/14 05:34:06;;;;;;;19.33;11.75;;;;;1.20;100242.00;;;;5073441;28;20036;-61
2023/02/14 05:36:33;;;;;;;19.20;11.35;;;;;1.20;100242.00;;;;5074508;28;20106;-61
2023/02/14 05:38:59;;;;;;;19.27;11.85;;;;;1.10;100236.00;;;;5073913;28;20055;-58
2023/02/14 05:41:26;;;;;;;20.73;11.40;;;;;1.00;100236.00;;;;5074063;28;20040;-59
2023/02/14 05:43:52;;;;;;;17.48;11.10;;;;;1.00;100238.00;;;;5073245;28;20060;-61
2023/02/14 05:46:19;;;;;;;18.85;11.65;;;;;1.00;100242.00;;;;5072825;28;20078;-61
2023/02/14 05:48:45;;;;;;;20.23;12.55;;;;;1.10;100233.00;;;;5072694;28;20492;-62
2023/02/14 05:51:12;;;;;;;19.05;11.77;;;;;1.10;100234.00;;;;5073214;28;20055;-62
2023/02/14 05:53:39;;;;;;;17.45;11.52;;;;;1.10;100234.00;;;;5073356;28;20044;-61
2023/02/14 05:56:05;;;;;;;20.40;11.07;;;;;1.20;100251.00;;;;5072526;28;20079;-61
2023/02/14 05:58:32;;;;;;;21.63;12.15;;;;;1.10;100247.00;;;;5073063;28;20071;-62
2023/02/14 06:00:59;;;;;;;22.67;12.50;;;;;1.20;100243.00;;;;5073135;28;20074;-62
2023/02/14 06:03:26;;;;;;;22.63;12.15;;;;;1.20;100246.00;;;;5072896;28;20095;-61
2023/02/14 06:05:52;;;;;;;20.27;12.68;;;;;1.20;100248.00;;;;5072430;28;20448;-61
2023/02/14 06:08:19;;;;;;;17.27;11.93;;;;;1.10;100255.00;;;;5071697;28;20086;-61
2023/02/14 06:10:45;;;;;;;21.98;13.13;;;;;1.10;100254.00;;;;5071696;28;20082;-62
2023/02/14 06:13:12;;;;;;;21.70;12.60;;;;;1.10;100254.00;;;;5073170;28;20062;-68
2023/02/14 06:15:39;;;;;;;21.55;12.68;;;;;1.00;100245.00;;;;5072416;28;20375;-62
2023/02/14 06:18:06;;;;;;;21.17;13.15;;;;;1.10;100258.00;;;;5072562;28;20044;-62
2023/02/14 06:20:32;;;;;;;20.35;13.50;;;;;1.00;100249.00;;;;5072846;28;20097;-62
2023/02/14 06:22:59;;;;;;;25.55;13.95;;;;;0.90;100246.00;;;;5072649;28;20040;-62
2023/02/14 06:25:25;;;;;;;18.80;12.05;;;;;1.00;100259.00;;;;5071714;28;20125;-62
2023/02/14 06:27:57;;;;;;;23.73;12.98;;;;;0.90;100257.00;;;;5071216;28;20505;-62
2023/02/14 06:30:24;;;;;;;23.63;13.07;;;;;0.90;100256.00;;;;5072345;28;20055;-61
2023/02/14 06:32:51;;;;;;;25.35;12.48;;;;;0.90;100258.00;;;;5072063;28;20098;-61
2023/02/14 06:35:18;;;;;;;20.90;13.13;;;;;0.90;100267.00;;;;5071738;28;20052;-61
2023/02/14 06:37:45;;;;;;;22.85;12.45;;;;;0.90;100269.00;;;;5072289;28;20052;-61
2023/02/14 06:40:12;;;;;;;25.08;13.90;;;;;0.80;100274.00;;;;5072295;28;20412;-61
2023/02/14 06:42:38;;;;;;;28.63;14.38;;;;;0.80;100261.00;;;;5072089;28;20098;-62
2023/02/14 06:45:05;;;;;;;26.92;15.32;;;;;0.90;100265.00;;;;5071656;28;20446;-61
2023/02/14 06:47:32;;;;;;;22.85;15.02;;;;;0.90;100272.00;;;;5072218;28;20040;-61
2023/02/14 06:50:03;;;;;;;22.67;13.63;;;;;1.00;100267.00;;;;5072140;28;20079;-61
2023/02/14 06:52:33;;;;;;;22.75;13.68;;;;;1.00;100271.00;;;;5071991;28;20128;-62
2023/02/14 06:54:59;;;;;;;21.23;13.13;;;;;1.00;100266.00;;;;5071454;28;20045;-62
2023/02/14 06:57:26;;;;;;;24.77;13.95;;;;;1.00;100264.00;;;;5071970;28;20044;-62
2023/02/14 06:59:53;;;;;;;22.48;13.77;;;;;1.10;100276.00;;;;5071068;28;20044;-61
2023/02/14 07:02:19;;;;;;;22.23;12.77;;;;;1.00;100272.00;;;;5072014;28;20051;-62
2023/02/14 07:04:49;;;;;;;21.98;13.52;;;;;0.90;100273.00;;;;5071482;28;20067;-61
2023/02/14 07:07:16;;;;;;;20.85;13.15;;;;;1.00;100273.00;;;;5071116;28;20044;-62
2023/02/14 07:09:42;;;;;;;23.08;14.13;;;;;0.90;100268.00;;;;5071944;28;20040;-62
2023/02/14 07:12:09;;;;;;;24.67;14.32;;;;;1.00;100265.00;;;;5072002;28;20044;-60
2023/02/14 07:14:35;;;;;;;21.15;13.85;;;;;1.00;100267.00;;;;5071111;28;20086;-60
2023/02/14 07:17:02;;;;;;;23.02;13.90;;;;;1.10;100267.00;;;;5070737;28;20432;-59
2023/02/14 07:19:28;;;;;;;24.73;14.70;;;;;1.10;100265.00;;;;5071850;28;20053;-60
2023/02/14 07:21:55;;;;;;;21.48;12.35;;;;;1.10;100274.00;;;;5071733;28;20044;-60
2023/02/14 07:24:21;;;;;;;23.63;13.38;;;;;1.10;100266.00;;;;5071105;28;20463;-60
2023/02/14 07:26:48;;;;;;;20.35;13.40;;;;;1.10;100261.00;;;;5071786;28;20078;-60
2023/02/14 07:29:14;;;;;;;20.83;13.85;;;;;1.10;100263.00;;;;5071702;28;20044;-60
2023/02/14 07:31:41;;;;;;;22.90;14.05;;;;;1.10;100256.00;;;;5071741;28;20040;-60
2023/02/14 07:34:08;;;;;;;22.10;14.55;;;;;1.10;100258.00;;;;5071315;28;20553;-60
2023/02/14 07:36:37;;;;;;;24.60;15.43;;;;;1.20;100256.00;;;;5071756;28;20048;-60
2023/02/14 07:39:04;;;;;;;23.00;13.98;;;;;1.20;100252.00;;;;5070418;28;20048;-61
2023/02/14 07:41:31;;;;;;;23.33;14.07;;;;;1.20;100262.00;;;;5071569;28;20386;-61
2023/02/14 07:43:57;;;;;;;22.02;13.55;;;;;1.20;100265.00;;;;5070918;28;20427;-61
2023/02/14 07:46:24;;;;;;;26.80;15.45;;;;;1.30;100255.00;;;;5071856;28;20068;-61
2023/02/14 07:48:51;;;;;;;21.70;13.30;;;;;1.40;100261.00;;;;5071829;28;20497;-62
2023/02/14 07:51:20;;;;;;;23.98;14.25;;;;;1.60;100250.00;;;;5070718;28;20048;-61
2023/02/14 07:53:47;;;;;;;23.70;15.07;;;;;1.60;100251.00;;;;5071888;28;20102;-62
2023/02/14 07:56:13;;;;;;;22.88;14.38;;;;;1.50;100259.00;;;;5069844;28;20128;-61
2023/02/14 07:58:40;;;;;;;25.35;15.32;;;;;1.50;100250.00;;;;5071805;28;20044;-61
2023/02/14 08:01:06;;;;;;;24.40;14.50;;;;;1.60;100251.00;;;;5071623;28;20048;-61
2023/02/14 08:03:33;;;;;;;24.58;14.60;;;;;1.60;100252.00;;;;5071999;28;20044;-62
2023/02/14 08:06:03;;;;;;;22.13;15.20;;;;;1.70;100255.00;;;;5071159;28;20413;-61
2023/02/14 08:08:33;;;;;;;26.77;16.30;;;;;1.70;100255.00;;;;5071785;28;20044;-61
2023/02/14 08:11:00;;;;;;;23.70;15.13;;;;;1.80;100259.00;;;;5072969;28;20048;-62
2023/02/14 08:13:27;;;;;;;25.15;15.50;;;;;1.90;100264.00;;;;5074028;28;20040;-61
2023/02/14 08:16:06;;;;;;;22.75;14.82;;;;;2.00;100253.00;;;;5074506;28;20048;-61
2023/02/14 08:18:39;;;;;;;29.90;16.52;;;;;2.20;100257.00;;;;5075096;28;20447;-62
2023/02/14 08:21:07;;;;;;;21.80;14.52;;;;;2.20;100264.00;;;;5074362;28;20052;-61
2023/02/14 08:23:37;;;;;;;23.67;14.65;;;;;2.40;100273.00;;;;5075208;28;20451;-61
2023/02/14 08:26:04;;;;;;;24.80;16.10;;;;;2.60;100267.00;;;;5074516;28;20445;-62
2023/02/14 08:28:31;;;;;;;22.40;15.02;;;;;2.70;100257.00;;;;5074216;28;20132;-61
2023/02/14 08:31:42;;;;;;;23.90;15.55;;;;;2.80;100270.00;;;;5075427;28;20082;-62
2023/02/14 08:34:06;;;;;;;24.02;15.52;;;;;2.90;100264.00;;;;5073857;28;20056;-62
2023/02/14 08:36:33;;;;;;;25.30;15.98;;;;;3.00;100269.00;;;;5074958;28;20409;-61
2023/02/14 08:39:02;;;;;;;22.77;15.77;;;;;3.00;100265.00;;;;5073639;28;20123;-61
2023/02/14 08:41:32;;;;;;;25.20;16.60;;;;;3.20;100268.00;;;;5075123;28;20048;-62
2023/02/14 08:43:59;;;;;;;26.13;17.08;;;;;3.30;100260.00;;;;5074595;28;20044;-62
2023/02/14 08:46:26;;;;;;;23.23;15.50;;;;;3.50;100267.00;;;;5078636;28;20045;-62
2023/02/14 08:48:53;;;;;;;25.95;16.90;;;;;3.40;100260.00;;;;5082851;28;20475;-62
2023/02/14 08:51:21;;;;;;;27.38;16.90;;;;;3.40;100269.00;;;;5080626;28;20042;-62
2023/02/14 08:53:51;;;;;;;25.73;17.08;;;;;3.50;100261.00;;;;5074984;28;20050;-62
2023/02/14 08:56:20;;;;;;;28.35;17.85;;;;;3.60;100268.00;;;;5074285;28;20128;-62
2023/02/14 08:58:46;;;;;;;24.33;16.20;;;;;3.70;100256.00;;;;5073154;28;20049;-62
2023/02/14 09:01:15;;;;;;;26.20;17.08;;;;;3.80;100266.00;;;;5073265;28;20444;-62
2023/02/14 09:03:43;;;;;;;26.55;16.40;;;;;3.90;100266.00;;;;5074554;28;20049;-61
2023/02/14 09:06:14;;;;;;;42.55;24.35;;;;;4.00;100270.00;;;;5073722;28;20047;-62
2023/02/14 09:08:42;;;;;;;29.20;17.20;;;;;4.20;100268.00;;;;5074062;28;20071;-62
2023/02/14 09:11:12;;;;;;;27.25;17.73;;;;;4.30;100262.00;;;;5074046;28;20056;-62
2023/02/14 09:13:40;;;;;;;26.58;16.73;;;;;4.50;100262.00;;;;5072700;28;20456;-62
2023/02/14 09:16:09;;;;;;;27.80;18.20;;;;;4.60;100265.00;;;;5073511;28;20044;-62
2023/02/14 09:18:36;;;;;;;28.90;18.88;;;;;4.60;100257.00;;;;5074346;28;20113;-62
2023/02/14 09:21:07;;;;;;;28.20;17.33;;;;;4.70;100270.00;;;;5074011;28;20040;-62
2023/02/14 09:23:34;;;;;;;29.35;18.63;;;;;4.90;100270.00;;;;5073053;28;20106;-62
2023/02/14 09:26:03;;;;;;;24.95;17.15;;;;;5.00;100270.00;;;;5072997;28;20052;-62
2023/02/14 09:28:30;;;;;;;27.25;18.00;;;;;5.10;100264.00;;;;5073781;28;20055;-61
2023/02/14 09:30:57;;;;;;;26.55;18.00;;;;;5.30;100260.00;;;;5073711;28;20045;-62
2023/02/14 09:33:27;;;;;;;31.17;19.98;;;;;5.40;100261.00;;;;5073696;28;20123;-61
2023/02/14 09:38:41;;;;;;;28.75;17.98;;;;;5.40;100269.00;;;;5073567;28;20386;-61
2023/02/14 09:41:18;;;;;;;27.95;18.73;;;;;5.50;100272.00;;;;5073814;28;20037;-62
2023/02/14 09:43:58;;;;;;;27.27;18.88;;;;;5.40;100256.00;;;;5073375;28;20063;-60
2023/02/14 09:46:26;;;;;;;31.02;19.27;;;;;5.40;100260.00;;;;5072636;28;20048;-60
2023/02/14 09:48:53;;;;;;;29.83;20.00;;;;;5.40;100258.00;;;;5073407;28;20101;-61
2023/02/14 09:51:24;;;;;;;27.80;18.77;;;;;5.40;100262.00;;;;5074817;28;20135;-61
2023/02/14 09:53:53;;;;;;;30.52;19.58;;;;;5.60;100265.00;;;;5075452;28;20048;-60
2023/02/14 09:56:37;;;;;;;28.92;19.63;;;;;5.80;100259.00;;;;5074605;28;20525;-61
2023/02/14 09:59:24;;;;;;;26.63;17.65;;;;;5.80;100249.00;;;;5077692;28;20071;-61
2023/02/14 10:01:53;;;;;;;27.83;18.15;;;;;5.90;100257.00;;;;5074855;28;20044;-61
2023/02/14 10:04:41;;;;;;;30.00;18.67;;;;;6.10;100255.00;;;;5076216;28;20036;-61
2023/02/14 10:07:24;;;;;;;27.42;17.85;;;;;6.20;100255.00;;;;5075605;28;20078;-61
2023/02/14 10:10:15;;;;;;;29.98;19.27;;;;;6.20;100244.00;;;;5075887;28;20048;-62
2023/02/14 10:12:46;;;;;;;26.67;17.05;;;;;6.30;100256.00;;;;5075847;28;20044;-62
2023/02/14 10:15:23;;;;;;;26.90;17.67;;;;;6.40;100256.00;;;;5073889;28;20106;-62
2023/02/14 10:18:00;;;;;;;28.58;18.65;;;;;6.50;100245.00;;;;5075357;28;20055;-62
2023/02/14 10:20:50;;;;;;;31.48;16.83;;;;;6.70;100255.00;;;;5075193;28;20088;-62
2023/02/14 10:23:20;;;;;;;25.45;17.70;;;;;6.80;100250.00;;;;5074835;28;20044;-61
2023/02/14 10:26:06;;;;;;;24.95;17.75;;;;;6.80;100238.00;;;;5073436;28;20052;-62
2023/02/14 10:28:54;;;;;;;27.80;17.80;;;;;6.90;100249.00;;;;5075154;28;20052;-62
2023/02/14 10:31:30;;;;;;;29.92;17.70;;;;;7.00;100236.00;;;;5074560;28;20086;-62
2023/02/14 10:34:05;;;;;;;33.78;22.48;;;;;7.20;100238.00;;;;5075826;28;20044;-62
2023/02/14 10:36:51;;;;;;;28.55;19.05;;;;;7.20;100245.00;;;;5075481;28;20044;-62
2023/02/14 10:39:41;;;;;;;26.77;18.05;;;;;7.30;100239.00;;;;5075176;28;20066;-61
2023/02/14 10:42:34;;;;;;;25.75;17.80;;;;;7.40;100243.00;;;;5075592;28;20045;-60
2023/02/14 10:45:13;;;;;;;26.50;18.95;;;;;7.40;100240.00;;;;5074984;28;20303;-61
2023/02/14 10:47:50;;;;;;;25.50;17.73;;;;;7.20;100235.00;;;;5074358;28;20047;-61
2023/02/14 10:50:25;;;;;;;24.75;17.95;;;;;7.20;100224.00;;;;5073722;28;20517;-61
2023/02/14 10:53:24;;;;;;;22.98;17.00;;;;;7.40;100238.00;;;;5074443;28;20057;-60
2023/02/14 10:55:55;;;;;;;25.00;16.88;;;;;7.30;100233.00;;;;5073930;28;20045;-61
2023/02/14 10:58:25;;;;;;;24.77;17.10;;;;;7.50;100231.00;;;;5074845;28;20051;-61
2023/02/14 11:00:58;;;;;;;24.33;17.35;;;;;7.60;100227.00;;;;5075188;28;20044;-62
2023/02/14 11:03:27;;;;;;;23.48;17.25;;;;;7.70;100235.00;;;;5075146;28;20044;-62
2023/02/14 11:05:54;;;;;;;24.80;17.38;;;;;7.80;100227.00;;;;5074694;28;20040;-61
2023/02/14 11:08:47;;;;;;;24.25;16.77;;;;;7.70;100220.00;;;;5075417;28;20051;-61
2023/02/14 11:11:36;;;;;;;25.00;16.88;;;;;7.60;100218.00;;;;5072596;28;20060;-61
2023/02/14 11:14:25;;;;;;;25.92;15.90;;;;;7.70;100217.00;;;;5072533;28;20049;-61
2023/02/14 11:16:53;;;;;;;24.15;16.88;;;;;7.60;100209.00;;;;5072317;28;20119;-60
2023/02/14 11:19:33;;;;;;;23.95;16.88;;;;;7.60;100209.00;;;;5072040;28;20041;-61
2023/02/14 11:22:03;;;;;;;23.15;16.02;;;;;7.70;100204.00;;;;5072311;28;20139;-61
2023/02/14 11:24:37;;;;;;;20.42;14.80;;;;;7.90;100204.00;;;;5071340;28;20071;-62
2023/02/14 11:27:16;;;;;;;25.13;15.95;;;;;7.90;100199.00;;;;5072158;28;20063;-62
2023/02/14 11:29:51;;;;;;;24.10;16.30;;;;;7.80;100206.00;;;;5071943;28;20044;-61
2023/02/14 11:32:29;;;;;;;21.85;15.57;;;;;7.90;100195.00;;;;5071997;28;20068;-61
2023/02/14 11:35:04;;;;;;;21.77;15.43;;;;;8.10;100198.00;;;;5072672;28;20086;-61
2023/02/14 11:37:37;;;;;;;24.45;16.42;;;;;8.00;100192.00;;;;5072830;28;20090;-61
2023/02/14 11:40:04;;;;;;;25.55;16.25;;;;;8.10;100187.00;;;;5072822;28;20052;-62
2023/02/14 11:42:43;;;;;;;21.40;15.32;;;;;8.10;100190.00;;;;5072430;28;20056;-62
2023/02/14 11:45:30;;;;;;;24.33;17.27;;;;;8.20;100194.00;;;;5072458;28;20049;-61
2023/02/14 11:48:38;;;;;;;20.70;15.45;;;;;8.30;100176.00;;;;5077726;28;20036;-61
2023/02/14 11:51:12;;;;;;;30.13;18.02;;;;;8.40;100177.00;;;;5054424;28;20060;-62
2023/02/14 11:53:44;;;;;;;;;;;;;8.50;100187.00;;;;5077258;28;20431;-61
2023/02/14 11:56:12;;;;;;;24.98;16.48;;;;;8.40;100180.00;;;;5074506;28;19920;-62
2023/02/14 11:58:58;;;;;;;22.00;16.17;;;;;8.40;100169.00;;;;5076052;28;20048;-62
2023/02/14 12:01:31;;;;;;;22.35;16.13;;;;;8.50;100163.00;;;;5075795;28;20044;-62
2023/02/14 12:04:03;;;;;;;21.88;15.40;;;;;8.50;100169.00;;;;5075647;28;20036;-62
2023/02/14 12:06:32;;;;;;;22.27;16.02;;;;;8.60;100172.00;;;;5075904;28;20051;-62
2023/02/14 12:09:21;;;;;;;24.30;16.00;;;;;8.60;100163.00;;;;5075506;28;20044;-62
2023/02/14 12:11:58;;;;;;;21.85;15.18;;;;;8.70;100158.00;;;;5075368;28;20041;-62
2023/02/14 12:14:28;;;;;;;23.95;15.35;;;;;8.70;100161.00;;;;5073625;28;20413;-61
2023/02/14 12:17:05;;;;;;;29.15;18.90;;;;;8.70;100159.00;;;;5075460;28;20049;-61
2023/02/14 12:19:57;;;;;;;24.13;17.60;;;;;8.80;100155.00;;;;5075642;28;20378;-62
2023/02/14 12:22:44;;;;;;;22.58;16.27;;;;;8.90;100144.00;;;;5075068;28;20532;-62
2023/02/14 12:25:45;;;;;;;20.52;14.45;;;;;9.10;100143.00;;;;5074551;28;20093;-61
2023/02/14 12:28:16;;;;;;;20.38;15.02;;;;;9.10;100142.00;;;;5067455;28;20056;-61
2023/02/14 12:30:42;;;;;;;21.13;14.90;;;;;9.10;100138.00;;;;5074842;28;20048;-62
2023/02/14 12:33:19;;;;;;;20.75;14.30;;;;;9.20;100143.00;;;;5074545;28;20106;-62
2023/02/14 12:36:07;;;;;;;23.17;15.15;;;;;9.10;100136.00;;;;5074245;28;20049;-62
2023/02/14 12:38:55;;;;;;;20.52;14.63;;;;;9.10;100136.00;;;;5073658;28;20052;-62